sensor_id;sensor_type;location;lat;lon;timestamp;P1;durP1;ratioP1;P2;durP2;ratioP2
59930;SDS011;45790;51.538;6.736;2022-10-13T00:00:29;13.23;;;6.30;;
59930;SDS011;45790;51.538;6.736;2022-10-13T00:02:57;11.93;;;6.85;;
59930;SDS011;45790;51.538;6.736;2022-10-13T00:05:24;11.75;;;6.25;;
59930;SDS011;45790;51.538;6.736;2022-10-13T00:07:49;10.00;;;6.10;;
59930;SDS011;45790;51.538;6.736;2022-10-13T00:10:17;14.32;;;6.70;;
59930;SDS011;45790;51.538;6.736;2022-10-13T00:12:43;9.60;;;5.55;;
59930;SDS011;45790;51.538;6.736;2022-10-13T00:15:11;10.52;;;5.97;;
59930;SDS011;45790;51.538;6.736;2022-10-13T00:17:37;10.32;;;6.22;;
59930;SDS011;45790;51.538;6.736;2022-10-13T00:20:05;11.20;;;6.03;;
59930;SDS011;45790;51.538;6.736;2022-10-13T00:22:31;13.00;;;6.68;;
59930;SDS011;45790;51.538;6.736;2022-10-13T00:24:57;12.40;;;6.55;;
59930;SDS011;45790;51.538;6.736;2022-10-13T00:27:22;11.48;;;6.38;;
59930;SDS011;45790;51.538;6.736;2022-10-13T00:29:51;11.40;;;6.20;;
59930;SDS011;45790;51.538;6.736;2022-10-13T00:32:16;10.73;;;6.35;;
59930;SDS011;45790;51.538;6.736;2022-10-13T00:34:42;11.98;;;6.22;;
59930;SDS011;45790;51.538;6.736;2022-10-13T00:37:07;10.70;;;6.15;;
59930;SDS011;45790;51.538;6.736;2022-10-13T00:39:36;12.27;;;6.55;;
59930;SDS011;45790;51.538;6.736;2022-10-13T00:42:01;12.30;;;6.20;;
59930;SDS011;45790;51.538;6.736;2022-10-13T00:47:30;11.90;;;6.72;;
59930;SDS011;45790;51.538;6.736;2022-10-13T00:50:01;10.75;;;6.40;;
59930;SDS011;45790;51.538;6.736;2022-10-13T00:52:28;11.35;;;5.88;;
59930;SDS011;45790;51.538;6.736;2022-10-13T00:54:54;11.77;;;6.35;;
59930;SDS011;45790;51.538;6.736;2022-10-13T00:57:20;11.20;;;6.43;;
59930;SDS011;45790;51.538;6.736;2022-10-13T00:59:46;11.95;;;6.35;;
59930;SDS011;45790;51.538;6.736;2022-10-13T01:02:12;12.63;;;7.20;;
59930;SDS011;45790;51.538;6.736;2022-10-13T01:04:42;12.98;;;6.53;;
59930;SDS011;45790;51.538;6.736;2022-10-13T01:07:12;10.77;;;6.50;;
59930;SDS011;45790;51.538;6.736;2022-10-13T01:12:16;10.60;;;6.38;;
59930;SDS011;45790;51.538;6.736;2022-10-13T01:17:38;10.23;;;6.25;;
59930;SDS011;45790;51.538;6.736;2022-10-13T01:30:57;11.13;;;6.10;;
59930;SDS011;45790;51.538;6.736;2022-10-13T01:36:33;9.57;;;6.20;;
59930;SDS011;45790;51.538;6.736;2022-10-13T01:39:26;10.05;;;6.00;;
59930;SDS011;45790;51.538;6.736;2022-10-13T01:41:55;10.63;;;6.47;;
59930;SDS011;45790;51.538;6.736;2022-10-13T01:44:26;11.70;;;6.40;;
59930;SDS011;45790;51.538;6.736;2022-10-13T01:46:55;11.07;;;6.20;;
59930;SDS011;45790;51.538;6.736;2022-10-13T01:49:22;11.05;;;6.20;;
59930;SDS011;45790;51.538;6.736;2022-10-13T01:51:52;11.52;;;6.45;;
59930;SDS011;45790;51.538;6.736;2022-10-13T01:54:19;10.18;;;5.93;;
59930;SDS011;45790;51.538;6.736;2022-10-13T01:56:55;9.40;;;5.90;;
59930;SDS011;45790;51.538;6.736;2022-10-13T01:59:20;9.73;;;6.10;;
59930;SDS011;45790;51.538;6.736;2022-10-13T02:09:43;13.45;;;6.03;;
59930;SDS011;45790;51.538;6.736;2022-10-13T02:12:15;12.95;;;6.30;;
59930;SDS011;45790;51.538;6.736;2022-10-13T02:14:45;10.93;;;6.75;;
59930;SDS011;45790;51.538;6.736;2022-10-13T02:17:11;14.00;;;6.75;;
59930;SDS011;45790;51.538;6.736;2022-10-13T02:19:37;10.40;;;6.20;;
59930;SDS011;45790;51.538;6.736;2022-10-13T02:22:05;11.18;;;6.00;;
59930;SDS011;45790;51.538;6.736;2022-10-13T02:24:32;11.10;;;5.95;;
59930;SDS011;45790;51.538;6.736;2022-10-13T02:26:58;9.88;;;6.22;;
59930;SDS011;45790;51.538;6.736;2022-10-13T02:29:24;10.27;;;6.43;;
59930;SDS011;45790;51.538;6.736;2022-10-13T02:31:49;11.20;;;6.03;;
59930;SDS011;45790;51.538;6.736;2022-10-13T02:34:15;11.20;;;6.35;;
59930;SDS011;45790;51.538;6.736;2022-10-13T02:36:41;10.13;;;6.18;;
59930;SDS011;45790;51.538;6.736;2022-10-13T02:39:07;9.77;;;5.90;;
59930;SDS011;45790;51.538;6.736;2022-10-13T02:41:39;8.95;;;6.13;;
59930;SDS011;45790;51.538;6.736;2022-10-13T02:44:05;8.20;;;5.55;;
59930;SDS011;45790;51.538;6.736;2022-10-13T02:46:31;13.30;;;6.47;;
59930;SDS011;45790;51.538;6.736;2022-10-13T02:48:56;11.45;;;6.13;;
59930;SDS011;45790;51.538;6.736;2022-10-13T02:51:22;11.82;;;6.20;;
59930;SDS011;45790;51.538;6.736;2022-10-13T02:53:47;11.88;;;6.10;;
59930;SDS011;45790;51.538;6.736;2022-10-13T02:56:12;13.52;;;7.13;;
59930;SDS011;45790;51.538;6.736;2022-10-13T02:58:38;13.32;;;6.85;;
59930;SDS011;45790;51.538;6.736;2022-10-13T03:01:07;13.60;;;6.57;;
59930;SDS011;45790;51.538;6.736;2022-10-13T03:05:59;14.18;;;6.85;;
59930;SDS011;45790;51.538;6.736;2022-10-13T03:08:25;11.80;;;6.32;;
59930;SDS011;45790;51.538;6.736;2022-10-13T03:10:51;11.77;;;6.63;;
59930;SDS011;45790;51.538;6.736;2022-10-13T03:13:16;13.98;;;6.80;;
59930;SDS011;45790;51.538;6.736;2022-10-13T03:15:41;12.70;;;6.65;;
59930;SDS011;45790;51.538;6.736;2022-10-13T03:18:07;12.63;;;6.75;;
59930;SDS011;45790;51.538;6.736;2022-10-13T03:20:32;12.10;;;6.75;;
59930;SDS011;45790;51.538;6.736;2022-10-13T03:22:57;10.52;;;6.05;;
59930;SDS011;45790;51.538;6.736;2022-10-13T03:25:23;12.18;;;6.10;;
59930;SDS011;45790;51.538;6.736;2022-10-13T03:27:48;11.05;;;5.90;;
59930;SDS011;45790;51.538;6.736;2022-10-13T03:30:13;14.38;;;6.75;;
59930;SDS011;45790;51.538;6.736;2022-10-13T03:32:42;9.60;;;5.70;;
59930;SDS011;45790;51.538;6.736;2022-10-13T03:35:08;13.60;;;6.43;;
59930;SDS011;45790;51.538;6.736;2022-10-13T03:37:36;12.20;;;5.88;;
59930;SDS011;45790;51.538;6.736;2022-10-13T03:40:01;11.60;;;5.97;;
59930;SDS011;45790;51.538;6.736;2022-10-13T03:42:27;13.45;;;6.07;;
59930;SDS011;45790;51.538;6.736;2022-10-13T03:44:53;13.02;;;6.75;;
59930;SDS011;45790;51.538;6.736;2022-10-13T03:47:18;11.48;;;5.65;;
59930;SDS011;45790;51.538;6.736;2022-10-13T03:49:47;9.95;;;5.47;;
59930;SDS011;45790;51.538;6.736;2022-10-13T03:52:12;10.88;;;5.60;;
59930;SDS011;45790;51.538;6.736;2022-10-13T03:54:38;10.68;;;5.85;;
59930;SDS011;45790;51.538;6.736;2022-10-13T03:57:03;11.13;;;5.78;;
59930;SDS011;45790;51.538;6.736;2022-10-13T03:59:28;10.75;;;6.13;;
59930;SDS011;45790;51.538;6.736;2022-10-13T04:01:57;9.98;;;5.45;;
59930;SDS011;45790;51.538;6.736;2022-10-13T04:04:22;10.10;;;5.88;;
59930;SDS011;45790;51.538;6.736;2022-10-13T04:06:47;12.85;;;5.80;;
59930;SDS011;45790;51.538;6.736;2022-10-13T04:09:16;9.18;;;5.18;;
59930;SDS011;45790;51.538;6.736;2022-10-13T04:11:41;11.50;;;6.00;;
59930;SDS011;45790;51.538;6.736;2022-10-13T04:14:07;9.95;;;5.43;;
59930;SDS011;45790;51.538;6.736;2022-10-13T04:16:32;10.07;;;5.57;;
59930;SDS011;45790;51.538;6.736;2022-10-13T04:19:02;11.60;;;5.70;;
59930;SDS011;45790;51.538;6.736;2022-10-13T04:21:30;11.57;;;5.63;;
59930;SDS011;45790;51.538;6.736;2022-10-13T04:23:57;10.43;;;5.43;;
59930;SDS011;45790;51.538;6.736;2022-10-13T04:26:24;8.05;;;4.93;;
59930;SDS011;45790;51.538;6.736;2022-10-13T04:28:52;9.32;;;5.47;;
59930;SDS011;45790;51.538;6.736;2022-10-13T04:31:18;9.02;;;5.15;;
59930;SDS011;45790;51.538;6.736;2022-10-13T04:33:47;8.48;;;5.15;;
59930;SDS011;45790;51.538;6.736;2022-10-13T04:36:13;10.90;;;5.45;;
59930;SDS011;45790;51.538;6.736;2022-10-13T04:38:39;8.50;;;5.80;;
59930;SDS011;45790;51.538;6.736;2022-10-13T04:41:08;8.63;;;5.30;;
59930;SDS011;45790;51.538;6.736;2022-10-13T04:43:37;9.45;;;5.35;;
59930;SDS011;45790;51.538;6.736;2022-10-13T04:46:12;9.68;;;5.50;;
59930;SDS011;45790;51.538;6.736;2022-10-13T04:48:39;8.10;;;5.00;;
59930;SDS011;45790;51.538;6.736;2022-10-13T04:51:06;10.13;;;5.68;;
59930;SDS011;45790;51.538;6.736;2022-10-13T04:53:36;8.95;;;5.40;;
59930;SDS011;45790;51.538;6.736;2022-10-13T04:56:03;10.57;;;5.13;;
59930;SDS011;45790;51.538;6.736;2022-10-13T04:58:39;10.05;;;5.15;;
59930;SDS011;45790;51.538;6.736;2022-10-13T05:01:06;9.52;;;5.22;;
59930;SDS011;45790;51.538;6.736;2022-10-13T05:03:33;8.50;;;4.68;;
59930;SDS011;45790;51.538;6.736;2022-10-13T05:05:59;7.78;;;4.57;;
59930;SDS011;45790;51.538;6.736;2022-10-13T05:08:25;9.02;;;5.30;;
59930;SDS011;45790;51.538;6.736;2022-10-13T05:10:59;9.60;;;5.10;;
59930;SDS011;45790;51.538;6.736;2022-10-13T05:13:26;9.18;;;5.00;;
59930;SDS011;45790;51.538;6.736;2022-10-13T05:15:52;8.65;;;4.90;;
59930;SDS011;45790;51.538;6.736;2022-10-13T05:18:17;8.10;;;4.60;;
59930;SDS011;45790;51.538;6.736;2022-10-13T05:20:43;9.38;;;5.25;;
59930;SDS011;45790;51.538;6.736;2022-10-13T05:23:08;9.82;;;5.07;;
59930;SDS011;45790;51.538;6.736;2022-10-13T05:25:34;8.48;;;4.40;;
59930;SDS011;45790;51.538;6.736;2022-10-13T05:28:05;9.05;;;5.03;;
59930;SDS011;45790;51.538;6.736;2022-10-13T05:30:31;10.10;;;4.87;;
59930;SDS011;45790;51.538;6.736;2022-10-13T05:32:57;8.15;;;4.93;;
59930;SDS011;45790;51.538;6.736;2022-10-13T05:35:23;9.05;;;4.50;;
59930;SDS011;45790;51.538;6.736;2022-10-13T05:37:51;8.40;;;4.65;;
59930;SDS011;45790;51.538;6.736;2022-10-13T05:40:17;7.88;;;4.72;;
59930;SDS011;45790;51.538;6.736;2022-10-13T05:42:45;8.63;;;4.63;;
59930;SDS011;45790;51.538;6.736;2022-10-13T05:45:11;7.32;;;4.32;;
59930;SDS011;45790;51.538;6.736;2022-10-13T05:47:36;8.88;;;4.80;;
59930;SDS011;45790;51.538;6.736;2022-10-13T05:50:02;8.60;;;4.78;;
59930;SDS011;45790;51.538;6.736;2022-10-13T05:52:27;10.88;;;4.65;;
59930;SDS011;45790;51.538;6.736;2022-10-13T05:54:57;9.27;;;4.65;;
59930;SDS011;45790;51.538;6.736;2022-10-13T05:59:55;7.38;;;4.38;;
59930;SDS011;45790;51.538;6.736;2022-10-13T06:02:25;9.43;;;4.50;;
59930;SDS011;45790;51.538;6.736;2022-10-13T06:04:54;7.13;;;4.50;;
59930;SDS011;45790;51.538;6.736;2022-10-13T06:07:21;11.18;;;4.45;;
59930;SDS011;45790;51.538;6.736;2022-10-13T06:09:47;6.85;;;4.18;;
59930;SDS011;45790;51.538;6.736;2022-10-13T06:12:13;10.30;;;4.90;;
59930;SDS011;45790;51.538;6.736;2022-10-13T06:14:38;7.93;;;4.60;;
59930;SDS011;45790;51.538;6.736;2022-10-13T06:17:03;10.75;;;4.95;;
59930;SDS011;45790;51.538;6.736;2022-10-13T06:19:29;7.80;;;4.40;;
59930;SDS011;45790;51.538;6.736;2022-10-13T06:21:57;6.97;;;4.30;;
59930;SDS011;45790;51.538;6.736;2022-10-13T06:24:23;6.82;;;4.30;;
59930;SDS011;45790;51.538;6.736;2022-10-13T06:26:48;8.30;;;4.68;;
59930;SDS011;45790;51.538;6.736;2022-10-13T06:29:13;8.07;;;4.10;;
59930;SDS011;45790;51.538;6.736;2022-10-13T06:31:39;7.00;;;4.22;;
59930;SDS011;45790;51.538;6.736;2022-10-13T06:34:07;9.25;;;5.22;;
59930;SDS011;45790;51.538;6.736;2022-10-13T06:36:32;8.93;;;4.55;;
59930;SDS011;45790;51.538;6.736;2022-10-13T06:38:58;8.60;;;5.10;;
59930;SDS011;45790;51.538;6.736;2022-10-13T06:41:23;7.35;;;4.57;;
59930;SDS011;45790;51.538;6.736;2022-10-13T06:43:48;7.72;;;4.22;;
59930;SDS011;45790;51.538;6.736;2022-10-13T06:46:14;6.40;;;4.80;;
59930;SDS011;45790;51.538;6.736;2022-10-13T06:48:39;7.10;;;4.07;;
59930;SDS011;45790;51.538;6.736;2022-10-13T06:51:05;10.10;;;4.88;;
59930;SDS011;45790;51.538;6.736;2022-10-13T06:53:32;8.18;;;4.10;;
59930;SDS011;45790;51.538;6.736;2022-10-13T06:55:58;7.90;;;4.47;;
59930;SDS011;45790;51.538;6.736;2022-10-13T06:58:24;8.38;;;4.53;;
59930;SDS011;45790;51.538;6.736;2022-10-13T07:00:57;8.27;;;4.30;;
59930;SDS011;45790;51.538;6.736;2022-10-13T07:03:23;8.32;;;4.57;;
59930;SDS011;45790;51.538;6.736;2022-10-13T07:05:49;7.95;;;4.35;;
59930;SDS011;45790;51.538;6.736;2022-10-13T07:08:17;6.97;;;4.05;;
59930;SDS011;45790;51.538;6.736;2022-10-13T07:10:43;7.65;;;4.65;;
59930;SDS011;45790;51.538;6.736;2022-10-13T07:13:08;7.50;;;4.03;;
59930;SDS011;45790;51.538;6.736;2022-10-13T07:15:36;7.63;;;4.60;;
59930;SDS011;45790;51.538;6.736;2022-10-13T07:18:02;7.55;;;4.40;;
59930;SDS011;45790;51.538;6.736;2022-10-13T07:20:28;7.68;;;4.03;;
59930;SDS011;45790;51.538;6.736;2022-10-13T07:22:53;7.95;;;4.25;;
59930;SDS011;45790;51.538;6.736;2022-10-13T07:25:19;9.40;;;3.80;;
59930;SDS011;45790;51.538;6.736;2022-10-13T07:27:44;9.02;;;4.25;;
59930;SDS011;45790;51.538;6.736;2022-10-13T07:30:10;6.15;;;3.85;;
59930;SDS011;45790;51.538;6.736;2022-10-13T07:32:37;8.07;;;4.28;;
59930;SDS011;45790;51.538;6.736;2022-10-13T07:35:03;7.07;;;4.40;;
59930;SDS011;45790;51.538;6.736;2022-10-13T07:37:29;6.82;;;4.03;;
59930;SDS011;45790;51.538;6.736;2022-10-13T07:39:55;6.90;;;4.43;;
59930;SDS011;45790;51.538;6.736;2022-10-13T07:42:20;6.65;;;3.72;;
59930;SDS011;45790;51.538;6.736;2022-10-13T07:44:46;7.18;;;4.40;;
59930;SDS011;45790;51.538;6.736;2022-10-13T07:47:11;8.63;;;4.22;;
59930;SDS011;45790;51.538;6.736;2022-10-13T07:49:37;6.40;;;3.75;;
59930;SDS011;45790;51.538;6.736;2022-10-13T07:52:02;9.00;;;4.30;;
59930;SDS011;45790;51.538;6.736;2022-10-13T07:54:28;7.55;;;4.47;;
59930;SDS011;45790;51.538;6.736;2022-10-13T07:56:53;8.30;;;4.15;;
59930;SDS011;45790;51.538;6.736;2022-10-13T07:59:19;7.55;;;4.43;;
59930;SDS011;45790;51.538;6.736;2022-10-13T08:01:45;7.55;;;4.50;;
59930;SDS011;45790;51.538;6.736;2022-10-13T08:04:10;6.50;;;3.85;;
59930;SDS011;45790;51.538;6.736;2022-10-13T08:06:36;7.85;;;3.88;;
59930;SDS011;45790;51.538;6.736;2022-10-13T08:09:02;7.45;;;4.35;;
59930;SDS011;45790;51.538;6.736;2022-10-13T08:11:28;7.43;;;4.30;;
59930;SDS011;45790;51.538;6.736;2022-10-13T08:13:54;7.85;;;4.07;;
59930;SDS011;45790;51.538;6.736;2022-10-13T08:16:24;7.75;;;4.70;;
59930;SDS011;45790;51.538;6.736;2022-10-13T08:18:51;8.35;;;4.55;;
59930;SDS011;45790;51.538;6.736;2022-10-13T08:21:17;8.32;;;4.25;;
59930;SDS011;45790;51.538;6.736;2022-10-13T08:23:43;8.88;;;4.70;;
59930;SDS011;45790;51.538;6.736;2022-10-13T08:26:19;6.80;;;4.25;;
59930;SDS011;45790;51.538;6.736;2022-10-13T08:28:46;8.40;;;4.60;;
59930;SDS011;45790;51.538;6.736;2022-10-13T08:31:12;7.05;;;4.38;;
59930;SDS011;45790;51.538;6.736;2022-10-13T08:33:37;7.45;;;4.57;;
59930;SDS011;45790;51.538;6.736;2022-10-13T08:36:03;8.88;;;4.63;;
59930;SDS011;45790;51.538;6.736;2022-10-13T08:38:28;7.22;;;4.45;;
59930;SDS011;45790;51.538;6.736;2022-10-13T08:40:53;8.27;;;4.32;;
59930;SDS011;45790;51.538;6.736;2022-10-13T08:43:22;8.52;;;4.57;;
59930;SDS011;45790;51.538;6.736;2022-10-13T08:45:48;7.55;;;4.60;;
59930;SDS011;45790;51.538;6.736;2022-10-13T08:48:33;9.55;;;5.03;;
59930;SDS011;45790;51.538;6.736;2022-10-13T08:51:04;8.95;;;4.10;;
59930;SDS011;45790;51.538;6.736;2022-10-13T08:56:08;7.45;;;4.63;;
59930;SDS011;45790;51.538;6.736;2022-10-13T08:58:35;8.02;;;4.50;;
59930;SDS011;45790;51.538;6.736;2022-10-13T09:03:39;8.90;;;5.00;;
59930;SDS011;45790;51.538;6.736;2022-10-13T09:06:38;6.63;;;4.35;;
59930;SDS011;45790;51.538;6.736;2022-10-13T09:09:07;7.85;;;4.85;;
59930;SDS011;45790;51.538;6.736;2022-10-13T09:11:37;8.23;;;4.55;;
59930;SDS011;45790;51.538;6.736;2022-10-13T09:14:20;8.13;;;4.80;;
59930;SDS011;45790;51.538;6.736;2022-10-13T09:16:49;8.65;;;4.65;;
59930;SDS011;45790;51.538;6.736;2022-10-13T09:21:55;7.65;;;4.63;;
59930;SDS011;45790;51.538;6.736;2022-10-13T09:24:22;8.32;;;4.57;;
59930;SDS011;45790;51.538;6.736;2022-10-13T09:26:51;8.90;;;4.65;;
59930;SDS011;45790;51.538;6.736;2022-10-13T09:29:27;7.80;;;5.00;;
59930;SDS011;45790;51.538;6.736;2022-10-13T09:34:50;8.93;;;4.88;;
59930;SDS011;45790;51.538;6.736;2022-10-13T09:37:20;13.23;;;5.25;;
59930;SDS011;45790;51.538;6.736;2022-10-13T09:39:58;7.97;;;4.95;;
59930;SDS011;45790;51.538;6.736;2022-10-13T09:42:26;10.77;;;5.55;;
59930;SDS011;45790;51.538;6.736;2022-10-13T09:44:56;9.38;;;5.03;;
59930;SDS011;45790;51.538;6.736;2022-10-13T09:47:23;7.50;;;4.70;;
59930;SDS011;45790;51.538;6.736;2022-10-13T09:49:58;12.30;;;4.88;;
59930;SDS011;45790;51.538;6.736;2022-10-13T09:52:25;7.53;;;4.50;;
59930;SDS011;45790;51.538;6.736;2022-10-13T09:54:51;10.00;;;4.70;;
59930;SDS011;45790;51.538;6.736;2022-10-13T09:57:32;6.97;;;4.72;;
59930;SDS011;45790;51.538;6.736;2022-10-13T10:00:21;9.27;;;5.43;;
59930;SDS011;45790;51.538;6.736;2022-10-13T10:10:56;10.27;;;5.25;;
59930;SDS011;45790;51.538;6.736;2022-10-13T10:13:25;7.95;;;4.90;;
59930;SDS011;45790;51.538;6.736;2022-10-13T10:15:54;8.30;;;4.85;;
59930;SDS011;45790;51.538;6.736;2022-10-13T10:21:07;8.55;;;4.78;;
59930;SDS011;45790;51.538;6.736;2022-10-13T10:24:22;7.85;;;4.93;;
59930;SDS011;45790;51.538;6.736;2022-10-13T10:29:13;8.43;;;4.60;;
59930;SDS011;45790;51.538;6.736;2022-10-13T10:31:51;9.45;;;5.30;;
59930;SDS011;45790;51.538;6.736;2022-10-13T10:34:30;12.52;;;5.60;;
59930;SDS011;45790;51.538;6.736;2022-10-13T10:39:51;11.02;;;5.20;;
59930;SDS011;45790;51.538;6.736;2022-10-13T10:45:03;10.13;;;5.57;;
59930;SDS011;45790;51.538;6.736;2022-10-13T10:47:39;12.00;;;5.43;;
59930;SDS011;45790;51.538;6.736;2022-10-13T10:50:07;8.52;;;5.22;;
59930;SDS011;45790;51.538;6.736;2022-10-13T10:52:52;11.10;;;5.38;;
59930;SDS011;45790;51.538;6.736;2022-10-13T10:55:26;11.18;;;5.28;;
59930;SDS011;45790;51.538;6.736;2022-10-13T11:00:21;8.80;;;5.35;;
59930;SDS011;45790;51.538;6.736;2022-10-13T11:13:59;9.48;;;4.68;;
59930;SDS011;45790;51.538;6.736;2022-10-13T11:19:04;8.15;;;4.18;;
59930;SDS011;45790;51.538;6.736;2022-10-13T11:27:24;8.95;;;4.47;;
59930;SDS011;45790;51.538;6.736;2022-10-13T11:30:02;9.68;;;4.70;;
59930;SDS011;45790;51.538;6.736;2022-10-13T11:42:59;7.65;;;4.38;;
59930;SDS011;45790;51.538;6.736;2022-10-13T11:50:46;7.13;;;4.50;;
59930;SDS011;45790;51.538;6.736;2022-10-13T11:53:52;10.63;;;4.20;;
59930;SDS011;45790;51.538;6.736;2022-10-13T11:56:36;6.80;;;4.07;;
59930;SDS011;45790;51.538;6.736;2022-10-13T11:59:44;7.07;;;4.18;;
59930;SDS011;45790;51.538;6.736;2022-10-13T12:02:09;8.25;;;4.00;;
59930;SDS011;45790;51.538;6.736;2022-10-13T12:04:35;6.65;;;3.83;;
59930;SDS011;45790;51.538;6.736;2022-10-13T12:07:05;9.38;;;3.80;;
59930;SDS011;45790;51.538;6.736;2022-10-13T12:09:32;6.20;;;3.83;;
59930;SDS011;45790;51.538;6.736;2022-10-13T12:14:51;6.93;;;3.60;;
59930;SDS011;45790;51.538;6.736;2022-10-13T12:19:46;8.65;;;4.18;;
59930;SDS011;45790;51.538;6.736;2022-10-13T12:22:11;6.40;;;3.50;;
59930;SDS011;45790;51.538;6.736;2022-10-13T12:24:37;6.35;;;3.72;;
59930;SDS011;45790;51.538;6.736;2022-10-13T12:27:09;7.22;;;3.30;;
59930;SDS011;45790;51.538;6.736;2022-10-13T12:29:39;7.50;;;3.40;;
59930;SDS011;45790;51.538;6.736;2022-10-13T12:32:18;5.57;;;3.28;;
59930;SDS011;45790;51.538;6.736;2022-10-13T12:34:48;6.00;;;3.20;;
59930;SDS011;45790;51.538;6.736;2022-10-13T12:37:24;6.40;;;3.00;;
59930;SDS011;45790;51.538;6.736;2022-10-13T12:40:00;8.25;;;3.65;;
59930;SDS011;45790;51.538;6.736;2022-10-13T12:42:29;7.53;;;3.05;;
59930;SDS011;45790;51.538;6.736;2022-10-13T12:44:56;6.60;;;3.30;;
59930;SDS011;45790;51.538;6.736;2022-10-13T12:50:31;6.70;;;3.40;;
59930;SDS011;45790;51.538;6.736;2022-10-13T12:53:32;6.32;;;3.10;;
59930;SDS011;45790;51.538;6.736;2022-10-13T12:55:54;5.15;;;2.72;;
59930;SDS011;45790;51.538;6.736;2022-10-13T12:58:29;5.53;;;3.05;;
59930;SDS011;45790;51.538;6.736;2022-10-13T13:08:37;4.35;;;2.63;;
59930;SDS011;45790;51.538;6.736;2022-10-13T13:11:04;5.22;;;2.80;;
59930;SDS011;45790;51.538;6.736;2022-10-13T13:13:33;4.85;;;3.03;;
59930;SDS011;45790;51.538;6.736;2022-10-13T13:16:12;5.53;;;2.90;;
59930;SDS011;45790;51.538;6.736;2022-10-13T13:18:39;5.40;;;3.10;;
59930;SDS011;45790;51.538;6.736;2022-10-13T13:21:07;6.07;;;2.85;;
59930;SDS011;45790;51.538;6.736;2022-10-13T13:23:34;6.15;;;3.03;;
59930;SDS011;45790;51.538;6.736;2022-10-13T13:26:01;5.13;;;2.80;;
59930;SDS011;45790;51.538;6.736;2022-10-13T13:28:47;5.00;;;2.88;;
59930;SDS011;45790;51.538;6.736;2022-10-13T13:33:40;5.93;;;3.10;;
59930;SDS011;45790;51.538;6.736;2022-10-13T13:36:18;5.63;;;2.78;;
59930;SDS011;45790;51.538;6.736;2022-10-13T13:38:48;5.60;;;2.58;;
59930;SDS011;45790;51.538;6.736;2022-10-13T13:41:14;4.57;;;2.65;;
59930;SDS011;45790;51.538;6.736;2022-10-13T13:43:40;6.20;;;3.20;;
59930;SDS011;45790;51.538;6.736;2022-10-13T13:46:06;5.47;;;2.72;;
59930;SDS011;45790;51.538;6.736;2022-10-13T13:48:36;4.53;;;2.65;;
59930;SDS011;45790;51.538;6.736;2022-10-13T13:51:02;4.93;;;2.72;;
59930;SDS011;45790;51.538;6.736;2022-10-13T13:53:27;4.00;;;2.72;;
59930;SDS011;45790;51.538;6.736;2022-10-13T13:55:52;6.07;;;3.05;;
59930;SDS011;45790;51.538;6.736;2022-10-13T13:58:18;4.43;;;2.60;;
59930;SDS011;45790;51.538;6.736;2022-10-13T14:00:44;5.00;;;2.70;;
59930;SDS011;45790;51.538;6.736;2022-10-13T14:03:10;4.72;;;2.80;;
59930;SDS011;45790;51.538;6.736;2022-10-13T14:05:37;4.03;;;2.70;;
59930;SDS011;45790;51.538;6.736;2022-10-13T14:08:05;5.47;;;2.65;;
59930;SDS011;45790;51.538;6.736;2022-10-13T14:10:31;4.43;;;2.70;;
59930;SDS011;45790;51.538;6.736;2022-10-13T14:12:57;4.35;;;2.33;;
59930;SDS011;45790;51.538;6.736;2022-10-13T14:15:22;4.82;;;2.72;;
59930;SDS011;45790;51.538;6.736;2022-10-13T14:17:50;7.05;;;2.70;;
59930;SDS011;45790;51.538;6.736;2022-10-13T14:20:16;3.97;;;2.60;;
59930;SDS011;45790;51.538;6.736;2022-10-13T14:22:41;5.22;;;2.47;;
59930;SDS011;45790;51.538;6.736;2022-10-13T14:25:07;5.28;;;2.88;;
59930;SDS011;45790;51.538;6.736;2022-10-13T14:27:33;6.10;;;2.90;;
59930;SDS011;45790;51.538;6.736;2022-10-13T14:29:58;6.72;;;3.10;;
59930;SDS011;45790;51.538;6.736;2022-10-13T14:32:25;4.75;;;2.75;;
59930;SDS011;45790;51.538;6.736;2022-10-13T14:34:50;5.47;;;3.03;;
59930;SDS011;45790;51.538;6.736;2022-10-13T14:37:15;5.40;;;2.97;;
59930;SDS011;45790;51.538;6.736;2022-10-13T14:39:41;4.85;;;2.85;;
59930;SDS011;45790;51.538;6.736;2022-10-13T14:42:06;5.85;;;2.90;;
59930;SDS011;45790;51.538;6.736;2022-10-13T14:44:32;5.13;;;2.70;;
59930;SDS011;45790;51.538;6.736;2022-10-13T14:46:57;6.40;;;2.70;;
59930;SDS011;45790;51.538;6.736;2022-10-13T14:49:23;5.38;;;3.15;;
59930;SDS011;45790;51.538;6.736;2022-10-13T14:51:48;6.25;;;2.83;;
59930;SDS011;45790;51.538;6.736;2022-10-13T14:54:13;5.32;;;2.78;;
59930;SDS011;45790;51.538;6.736;2022-10-13T14:56:39;5.38;;;2.85;;
59930;SDS011;45790;51.538;6.736;2022-10-13T14:59:05;5.32;;;2.65;;
59930;SDS011;45790;51.538;6.736;2022-10-13T15:01:31;6.60;;;2.58;;
59930;SDS011;45790;51.538;6.736;2022-10-13T15:03:57;4.88;;;2.75;;
59930;SDS011;45790;51.538;6.736;2022-10-13T15:06:23;5.55;;;2.85;;
59930;SDS011;45790;51.538;6.736;2022-10-13T15:08:49;6.70;;;3.00;;
59930;SDS011;45790;51.538;6.736;2022-10-13T15:11:16;9.02;;;3.08;;
59930;SDS011;45790;51.538;6.736;2022-10-13T15:13:42;4.53;;;2.60;;
59930;SDS011;45790;51.538;6.736;2022-10-13T15:16:21;6.75;;;3.00;;
59930;SDS011;45790;51.538;6.736;2022-10-13T15:18:48;4.90;;;2.80;;
59930;SDS011;45790;51.538;6.736;2022-10-13T15:21:14;4.90;;;2.88;;
59930;SDS011;45790;51.538;6.736;2022-10-13T15:23:39;5.03;;;2.95;;
59930;SDS011;45790;51.538;6.736;2022-10-13T15:26:05;6.57;;;2.90;;
59930;SDS011;45790;51.538;6.736;2022-10-13T15:28:38;4.13;;;2.60;;
59930;SDS011;45790;51.538;6.736;2022-10-13T15:31:07;4.75;;;2.85;;
59930;SDS011;45790;51.538;6.736;2022-10-13T15:33:32;7.22;;;2.95;;
59930;SDS011;45790;51.538;6.736;2022-10-13T15:35:58;4.85;;;2.88;;
59930;SDS011;45790;51.538;6.736;2022-10-13T15:41:14;4.78;;;2.97;;
59930;SDS011;45790;51.538;6.736;2022-10-13T15:43:43;4.70;;;3.05;;
59930;SDS011;45790;51.538;6.736;2022-10-13T15:46:10;8.30;;;3.38;;
59930;SDS011;45790;51.538;6.736;2022-10-13T15:48:37;5.88;;;3.33;;
59930;SDS011;45790;51.538;6.736;2022-10-13T15:51:15;6.88;;;3.05;;
59930;SDS011;45790;51.538;6.736;2022-10-13T15:53:41;4.93;;;2.90;;
59930;SDS011;45790;51.538;6.736;2022-10-13T15:56:07;5.70;;;3.08;;
59930;SDS011;45790;51.538;6.736;2022-10-13T15:58:35;8.15;;;3.20;;
59930;SDS011;45790;51.538;6.736;2022-10-13T16:01:05;5.00;;;2.80;;
59930;SDS011;45790;51.538;6.736;2022-10-13T16:03:34;6.45;;;3.38;;
59930;SDS011;45790;51.538;6.736;2022-10-13T16:06:04;4.80;;;2.72;;
59930;SDS011;45790;51.538;6.736;2022-10-13T16:08:30;5.88;;;2.90;;
59930;SDS011;45790;51.538;6.736;2022-10-13T16:10:56;4.75;;;2.50;;
59930;SDS011;45790;51.538;6.736;2022-10-13T16:13:23;4.85;;;2.75;;
59930;SDS011;45790;51.538;6.736;2022-10-13T16:15:55;3.72;;;2.63;;
59930;SDS011;45790;51.538;6.736;2022-10-13T16:18:27;6.30;;;3.10;;
59930;SDS011;45790;51.538;6.736;2022-10-13T16:20:53;4.20;;;2.80;;
59930;SDS011;45790;51.538;6.736;2022-10-13T16:23:18;6.57;;;3.22;;
59930;SDS011;45790;51.538;6.736;2022-10-13T16:25:44;4.43;;;2.50;;
59930;SDS011;45790;51.538;6.736;2022-10-13T16:28:11;4.35;;;2.70;;
59930;SDS011;45790;51.538;6.736;2022-10-13T16:30:37;5.63;;;2.80;;
59930;SDS011;45790;51.538;6.736;2022-10-13T16:33:02;4.72;;;2.88;;
59930;SDS011;45790;51.538;6.736;2022-10-13T16:35:28;5.22;;;2.60;;
59930;SDS011;45790;51.538;6.736;2022-10-13T16:37:53;5.18;;;2.60;;
59930;SDS011;45790;51.538;6.736;2022-10-13T16:40:18;6.07;;;2.70;;
59930;SDS011;45790;51.538;6.736;2022-10-13T16:42:47;3.63;;;2.55;;
59930;SDS011;45790;51.538;6.736;2022-10-13T16:45:12;5.90;;;2.80;;
59930;SDS011;45790;51.538;6.736;2022-10-13T16:47:37;5.07;;;2.92;;
59930;SDS011;45790;51.538;6.736;2022-10-13T16:50:04;4.93;;;2.90;;
59930;SDS011;45790;51.538;6.736;2022-10-13T16:52:33;4.50;;;2.75;;